Time;durP1;ratioP1;P1;durP2;ratioP2;P2;SDS_P1;SDS_P2;PMS_P1;PMS_P2;Temp;Humidity;BMP_temperature;BMP_pressure;BME280_temperature;BME280_humidity;BME280_pressure;Samples;Min_cycle;Max_cycle;Signal;HPM_P1;HPM_P2
2023/04/27 00:00:53;;;;;;;8.75;4.85;;;;;;;8.52;100.00;100755.63;5019322;28;20033;-84
2023/04/27 00:03:19;;;;;;;7.63;4.80;;;;;;;8.55;100.00;100760.69;5053059;28;20044;-82
2023/04/27 00:05:45;;;;;;;12.15;5.32;;;;;;;8.54;100.00;100753.66;5051800;28;20430;-77
2023/04/27 00:08:15;;;;;;;10.13;4.97;;;;;;;8.42;100.00;100741.56;5052518;28;20105;-79
2023/04/27 00:10:44;;;;;;;9.85;4.78;;;;;;;8.54;100.00;100756.31;5019356;28;20368;-79
2023/04/27 00:13:10;;;;;;;9.43;5.68;;;;;;;8.59;100.00;100759.34;5036158;28;20494;-81
2023/04/27 00:15:35;;;;;;;12.73;6.40;;;;;;;8.65;100.00;100757.84;5053476;28;20033;-77
2023/04/27 00:18:09;;;;;;;9.60;5.43;;;;;;;8.66;100.00;100754.19;5051573;28;20472;-79
2023/04/27 00:20:37;;;;;;;14.75;6.18;;;;;;;8.63;100.00;100744.63;5018968;28;20452;-81
2023/04/27 00:23:03;;;;;;;10.85;5.63;;;;;;;8.59;100.00;100736.06;5035902;28;20036;-82
2023/04/27 00:25:33;;;;;;;9.55;5.47;;;;;;;8.66;100.00;100744.31;5053287;28;20021;-82
2023/04/27 00:27:59;;;;;;;10.98;6.78;;;;;;;8.62;100.00;100734.91;5019342;28;20040;-83
2023/04/27 00:30:24;;;;;;;13.88;5.88;;;;;;;8.62;100.00;100726.88;5052368;28;20025;-85
2023/04/27 00:32:50;;;;;;;11.13;5.50;;;;;;;8.66;100.00;100736.28;5053253;28;20108;-77
2023/04/27 00:35:23;;;;;;;7.13;5.10;;;;;;;8.69;100.00;100730.56;5052614;28;20380;-80
2023/04/27 00:37:55;;;;;;;11.27;5.30;;;;;;;8.69;100.00;100717.16;5019269;28;20068;-77
2023/04/27 00:40:21;;;;;;;8.80;5.47;;;;;;;8.72;100.00;100724.88;5019518;28;20156;-79
2023/04/27 00:42:52;;;;;;;8.88;4.97;;;;;;;8.71;100.00;100728.56;5052768;28;20515;-78
2023/04/27 00:45:20;;;;;;;11.60;6.15;;;;;;;8.65;100.00;100710.44;5052937;28;20025;-82
2023/04/27 00:47:48;;;;;;;9.85;5.82;;;;;;;8.64;100.00;100721.34;5052387;28;20049;-83
2023/04/27 00:50:22;;;;;;;12.10;5.80;;;;;;;8.63;100.00;100708.97;5035296;28;20485;-78
2023/04/27 00:52:47;;;;;;;;;;;;;;;8.68;100.00;100720.88;5052628;28;20170;-80
2023/04/27 00:55:13;;;;;;;9.25;5.30;;;;;;;8.62;100.00;100705.41;5085370;28;20394;-88
2023/04/27 00:57:38;;;;;;;11.98;6.07;;;;;;;8.65;100.00;100704.25;5019065;28;20041;-79
2023/04/27 01:00:10;;;;;;;8.55;5.32;;;;;;;8.60;100.00;100694.06;5053217;28;20040;-80
2023/04/27 01:02:36;;;;;;;9.60;5.25;;;;;;;8.66;100.00;100704.09;5051354;28;20494;-80
2023/04/27 01:05:02;;;;;;;11.40;5.55;;;;;;;8.69;100.00;100702.94;5052677;28;20033;-79
2023/04/27 01:07:28;;;;;;;9.48;5.30;;;;;;;8.67;100.00;100696.91;5035495;28;20033;-78
2023/04/27 01:09:59;;;;;;;11.02;5.57;;;;;;;8.67;100.00;100695.03;5018873;28;20029;-82
2023/04/27 01:12:25;;;;;;;13.48;5.63;;;;;;;8.68;100.00;100693.19;5035177;28;20379;-79
2023/04/27 01:14:50;;;;;;;8.10;4.45;;;;;;;8.73;100.00;100698.91;5035201;28;20029;-87
2023/04/27 01:17:17;;;;;;;6.43;4.82;;;;;;;8.72;100.00;100689.19;5020474;28;20044;-81
2023/04/27 01:19:46;;;;;;;11.02;5.47;;;;;;;8.72;100.00;100687.34;5038811;28;20043;-77
2023/04/27 01:22:14;;;;;;;7.07;5.03;;;;;;;8.59;100.00;100661.03;5038358;28;20035;-81
2023/04/27 01:24:42;;;;;;;11.07;4.85;;;;;;;8.77;100.00;100684.19;5055439;28;20115;-82
2023/04/27 01:27:12;;;;;;;6.50;4.57;;;;;;;8.78;100.00;100678.63;5022268;28;20043;-85
2023/04/27 01:29:42;;;;;;;6.60;4.80;;;;;;;8.80;100.00;100679.31;5038870;28;20025;-81
2023/04/27 01:32:11;;;;;;;8.68;4.65;;;;;;;8.83;100.00;100674.63;5054516;28;20494;-80
2023/04/27 01:34:39;;;;;;;8.70;5.13;;;;;;;8.75;100.00;100662.06;5054797;28;20116;-85
2023/04/27 01:37:05;;;;;;;7.70;4.97;;;;;;;8.78;100.00;100662.53;5055008;28;20083;-77
2023/04/27 01:39:36;;;;;;;12.88;5.22;;;;;;;8.77;100.00;100660.06;5038906;28;20438;-82
2023/04/27 01:42:10;;;;;;;8.93;5.22;;;;;;;8.76;100.00;100661.91;5038372;28;20035;-78
2023/04/27 01:44:38;;;;;;;8.77;5.38;;;;;;;8.76;100.00;100667.25;5038906;28;20044;-80
2023/04/27 01:47:06;;;;;;;11.18;5.68;;;;;;;8.55;100.00;100627.53;5054765;28;20048;-82
2023/04/27 01:49:34;;;;;;;7.82;4.85;;;;;;;8.73;100.00;100656.88;5054944;28;20029;-82
2023/04/27 01:51:59;;;;;;;8.98;5.03;;;;;;;8.67;100.00;100645.97;5038074;28;20453;-82
2023/04/27 01:54:28;;;;;;;5.90;3.80;;;;;;;8.56;100.00;100626.53;5038004;28;20029;-78
2023/04/27 01:56:53;;;;;;;10.10;5.80;;;;;;;8.57;100.00;100635.38;5056116;28;20112;-82
2023/04/27 01:59:19;;;;;;;10.43;4.90;;;;;;;8.48;100.00;100623.00;5021142;28;20187;-78
2023/04/27 02:01:47;;;;;;;9.93;5.57;;;;;;;8.53;100.00;100634.06;5056045;28;20029;-79
2023/04/27 02:04:18;;;;;;;7.70;5.00;;;;;;;8.50;100.00;100627.19;5023114;28;20033;-81
2023/04/27 02:06:49;;;;;;;5.65;4.15;;;;;;;8.56;100.00;100631.03;5054495;28;20025;-80
2023/04/27 02:09:15;;;;;;;9.82;5.57;;;;;;;8.57;100.00;100632.72;5021793;28;20052;-84
2023/04/27 02:11:43;;;;;;;8.73;4.85;;;;;;;8.57;100.00;100627.34;5055145;28;20475;-76
2023/04/27 02:14:08;;;;;;;8.82;5.00;;;;;;;8.61;100.00;100623.34;5037737;28;20025;-76
2023/04/27 02:16:37;;;;;;;8.02;4.57;;;;;;;8.53;100.00;100610.78;5055101;28;20072;-85
2023/04/27 02:19:07;;;;;;;7.90;5.03;;;;;;;8.57;100.00;100620.19;5055570;28;20040;-81
2023/04/27 02:21:33;;;;;;;8.98;5.32;;;;;;;8.57;100.00;100614.81;5021264;28;20388;-80
2023/04/27 02:24:04;;;;;;;10.85;5.78;;;;;;;8.56;100.00;100609.59;5037101;28;20478;-80
2023/04/27 02:26:29;;;;;;;8.93;5.32;;;;;;;8.58;100.00;100611.13;5054426;28;20036;-77
2023/04/27 02:28:58;;;;;;;12.75;5.65;;;;;;;8.56;100.00;100606.94;5054376;28;20029;-78
2023/04/27 02:31:24;;;;;;;9.23;5.53;;;;;;;8.56;100.00;100593.53;5020784;28;20363;-76
2023/04/27 02:33:51;;;;;;;9.55;5.65;;;;;;;8.59;100.00;100595.88;5021119;28;20116;-78
2023/04/27 02:36:17;;;;;;;10.10;5.32;;;;;;;8.56;100.00;100586.31;5054685;28;20029;-82
2023/04/27 02:38:45;;;;;;;9.75;4.90;;;;;;;8.58;100.00;100589.69;5054885;28;20477;-78
2023/04/27 02:41:13;;;;;;;8.63;4.28;;;;;;;8.59;100.00;100588.66;5037461;28;20029;-80
2023/04/27 02:43:42;;;;;;;7.95;5.47;;;;;;;8.63;100.00;100589.19;5053782;28;20025;-80
2023/04/27 02:46:11;;;;;;;9.57;4.47;;;;;;;8.65;100.00;100586.31;5055088;28;20424;-80
2023/04/27 02:48:39;;;;;;;10.65;5.80;;;;;;;8.62;100.00;100578.63;5054071;28;20102;-81
2023/04/27 02:51:05;;;;;;;9.90;6.25;;;;;;;8.68;100.00;100586.84;5054589;28;20545;-79
2023/04/27 02:53:34;;;;;;;12.40;5.03;;;;;;;8.66;100.00;100579.97;5037165;28;20028;-77
2023/04/27 02:56:00;;;;;;;7.65;5.32;;;;;;;8.66;100.00;100575.44;5054498;28;20064;-82
2023/04/27 02:58:29;;;;;;;11.57;6.35;;;;;;;8.64;100.00;100566.72;5037045;28;20394;-83
2023/04/27 03:01:03;;;;;;;10.55;6.13;;;;;;;8.67;100.00;100570.91;5037466;28;20072;-84
2023/04/27 03:03:35;;;;;;;;;;;;;;;8.67;100.00;100570.91;5053298;28;20052;-77
2023/04/27 03:06:03;;;;;;;10.40;5.68;;;;;;;8.50;100.00;100527.22;5069867;28;19909;-79
2023/04/27 03:08:31;;;;;;;11.38;5.68;;;;;;;8.57;100.00;100555.84;5054429;28;20112;-79
2023/04/27 03:10:56;;;;;;;7.70;4.97;;;;;;;8.52;100.00;100551.97;5052812;28;20035;-84
2023/04/27 03:13:29;;;;;;;9.57;5.93;;;;;;;8.49;100.00;100550.47;5020033;28;20029;-79
2023/04/27 03:15:55;;;;;;;10.05;5.40;;;;;;;8.43;100.00;100553.81;5053295;28;20042;-81
2023/04/27 03:18:21;;;;;;;11.48;6.20;;;;;;;8.34;100.00;100546.78;5036013;28;20037;-81
2023/04/27 03:20:49;;;;;;;11.48;6.50;;;;;;;8.30;100.00;100542.72;5020416;28;20369;-78
2023/04/27 03:23:14;;;;;;;11.40;5.75;;;;;;;8.31;100.00;100544.44;5020374;28;20041;-83
2023/04/27 03:25:40;;;;;;;12.15;6.70;;;;;;;8.21;100.00;100528.50;5053547;28;20028;-80
2023/04/27 03:28:06;;;;;;;7.22;4.50;;;;;;;8.26;100.00;100528.84;5053893;28;20029;-81
2023/04/27 03:30:36;;;;;;;11.93;5.70;;;;;;;8.18;100.00;100518.13;5035960;28;20068;-78
2023/04/27 03:33:02;;;;;;;13.00;6.65;;;;;;;8.28;100.00;100539.38;5036783;28;20123;-82
2023/04/27 03:35:30;;;;;;;8.10;4.18;;;;;;;8.27;100.00;100535.03;5036559;28;20508;-76
2023/04/27 03:37:58;;;;;;;13.63;6.10;;;;;;;8.31;100.00;100545.25;5019558;28;20072;-80
2023/04/27 03:40:26;;;;;;;11.48;6.35;;;;;;;8.28;100.00;100529.53;5036368;28;20074;-86
2023/04/27 03:42:52;;;;;;;13.60;6.50;;;;;;;8.25;100.00;100527.16;5019785;28;20117;-79
2023/04/27 03:45:23;;;;;;;12.82;7.10;;;;;;;8.32;100.00;100530.84;5053585;28;20098;-80
2023/04/27 03:47:52;;;;;;;11.98;5.95;;;;;;;8.34;100.00;100523.50;5052867;28;20086;-84
2023/04/27 03:50:17;;;;;;;9.48;6.72;;;;;;;8.32;100.00;100513.94;5019500;28;20033;-82
2023/04/27 03:52:45;;;;;;;10.32;6.05;;;;;;;8.35;100.00;100514.44;5035845;28;20056;-85
2023/04/27 03:55:18;;;;;;;14.18;6.15;;;;;;;8.34;100.00;100515.44;5019788;28;20094;-79
2023/04/27 03:57:47;;;;;;;11.02;6.20;;;;;;;8.34;100.00;100514.63;5036687;28;20036;-85
2023/04/27 04:00:14;;;;;;;9.77;5.70;;;;;;;8.35;100.00;100509.06;5052544;28;20103;-83
2023/04/27 04:02:41;;;;;;;11.90;6.72;;;;;;;8.38;100.00;100500.69;5051734;28;20468;-86
2023/04/27 04:05:07;;;;;;;11.45;5.72;;;;;;;8.45;100.00;100500.09;5053183;28;20033;-79
2023/04/27 04:07:33;;;;;;;9.07;6.28;;;;;;;8.49;100.00;100504.91;5053060;28;20399;-83
2023/04/27 04:09:59;;;;;;;8.90;6.22;;;;;;;8.50;100.00;100489.69;5035853;28;20037;-85
2023/04/27 04:12:25;;;;;;;12.45;6.47;;;;;;;8.53;100.00;100489.34;5019601;28;20048;-79
2023/04/27 04:14:50;;;;;;;10.55;6.28;;;;;;;8.56;100.00;100500.56;5035531;28;20116;-78
2023/04/27 04:17:18;;;;;;;8.73;5.05;;;;;;;8.57;100.00;100491.53;5019532;28;20059;-81
2023/04/27 04:19:48;;;;;;;12.77;6.95;;;;;;;8.56;100.00;100491.69;5019378;28;20040;-80
2023/04/27 04:22:13;;;;;;;10.80;6.40;;;;;;;8.56;100.00;100489.00;5033138;28;20069;-79
2023/04/27 04:24:39;;;;;;;11.13;6.57;;;;;;;8.55;100.00;100492.72;5053519;28;20059;-80
2023/04/27 04:27:05;;;;;;;11.38;5.95;;;;;;;8.57;100.00;100488.84;5051594;28;20463;-78
2023/04/27 04:29:31;;;;;;;15.80;6.47;;;;;;;8.56;100.00;100487.16;5052679;28;20066;-79
2023/04/27 04:31:57;;;;;;;12.32;6.80;;;;;;;8.54;100.00;100485.66;5035746;28;20021;-80
2023/04/27 04:34:28;;;;;;;14.27;7.43;;;;;;;8.56;100.00;100483.66;5035399;28;20099;-82
2023/04/27 04:36:56;;;;;;;14.43;6.55;;;;;;;8.58;100.00;100476.28;5052035;28;20031;-80
2023/04/27 04:39:26;;;;;;;11.63;5.25;;;;;;;8.55;100.00;100468.59;5053455;28;20064;-78
2023/04/27 04:41:53;;;;;;;13.05;6.57;;;;;;;8.57;100.00;100472.78;5035258;28;20036;-84
2023/04/27 04:44:19;;;;;;;10.75;5.80;;;;;;;8.58;100.00;100471.75;5035804;28;20447;-81
2023/04/27 04:46:50;;;;;;;12.30;6.35;;;;;;;8.55;100.00;100449.84;5051981;28;20024;-84
2023/04/27 04:49:16;;;;;;;12.88;6.90;;;;;;;8.58;100.00;100455.69;5035826;28;20041;-78
2023/04/27 04:51:46;;;;;;;17.13;6.72;;;;;;;8.58;100.00;100450.31;5052701;28;20033;-80
2023/04/27 04:54:11;;;;;;;10.20;5.90;;;;;;;8.56;100.00;100448.81;5038699;28;20407;-86
2023/04/27 04:56:37;;;;;;;9.27;5.32;;;;;;;8.49;100.00;100434.41;5039246;28;20033;-78
2023/04/27 04:59:03;;;;;;;13.40;6.45;;;;;;;8.48;100.00;100424.72;5057197;28;20025;-82
2023/04/27 05:01:29;;;;;;;8.38;6.07;;;;;;;8.47;100.00;100436.44;5038261;28;20060;-80
2023/04/27 05:03:58;;;;;;;8.30;5.30;;;;;;;8.47;100.00;100439.13;5055353;28;20108;-80
2023/04/27 05:06:28;;;;;;;11.23;6.05;;;;;;;8.46;100.00;100434.75;5056532;28;20048;-80
2023/04/27 05:08:57;;;;;;;11.48;6.07;;;;;;;8.45;100.00;100433.09;5039022;28;20039;-82
2023/04/27 05:11:31;;;;;;;9.65;4.40;;;;;;;8.40;100.00;100424.72;5038562;28;20033;-79
2023/04/27 05:14:43;;;;;;;;;;;;;;;;;;;;;
2023/04/27 05:21:20;;;;;;;10.82;6.30;;;;;;;8.30;100.00;100415.00;5013705;28;20443;-79
2023/04/27 05:24:15;;;;;;;11.02;5.88;;;;;;;8.21;100.00;100397.28;5001664;28;20056;-81
2023/04/27 05:27:02;;;;;;;15.05;7.20;;;;;;;8.56;100.00;100449.66;4993316;28;20080;-82
2023/04/27 05:29:27;;;;;;;9.10;5.50;;;;;;;8.42;100.00;100412.00;5038671;28;20043;-78
2023/04/27 05:31:53;;;;;;;13.43;8.10;;;;;;;8.45;100.00;100417.84;5022315;28;20033;-77
2023/04/27 05:34:19;;;;;;;14.75;7.07;;;;;;;8.57;100.00;100434.41;5055246;28;20471;-79
2023/04/27 05:36:47;;;;;;;14.07;7.25;;;;;;;8.47;100.00;100415.84;5056422;28;20147;-79
2023/04/27 05:39:15;;;;;;;14.00;7.18;;;;;;;8.72;100.00;100446.09;5055146;28;20025;-86
2023/04/27 05:41:43;;;;;;;8.07;5.95;;;;;;;8.77;100.00;100435.69;5021834;28;20029;-86
2023/04/27 05:44:11;;;;;;;12.65;6.38;;;;;;;8.74;100.00;100419.97;5038814;28;20036;-77
2023/04/27 05:46:37;;;;;;;11.05;7.03;;;;;;;8.76;100.00;100423.31;5022125;28;20033;-82
2023/04/27 05:49:05;;;;;;;12.52;6.85;;;;;;;8.82;100.00;100426.31;5056317;28;20110;-78
2023/04/27 05:51:33;;;;;;;12.68;7.22;;;;;;;8.87;100.00;100413.22;5057202;28;20114;-79
2023/04/27 05:54:01;;;;;;;11.50;6.32;;;;;;;8.90;100.00;100404.84;5056489;28;20053;-86
2023/04/27 05:56:27;;;;;;;13.48;6.78;;;;;;;9.02;100.00;100422.19;5038140;28;20037;-78
2023/04/27 05:58:58;;;;;;;15.05;6.55;;;;;;;9.12;100.00;100419.31;5038423;28;20361;-80
2023/04/27 06:01:26;;;;;;;13.05;6.88;;;;;;;9.15;100.00;100421.66;5055664;28;20037;-84
2023/04/27 06:03:51;;;;;;;11.57;6.68;;;;;;;9.20;100.00;100419.28;5020801;28;20041;-81
2023/04/27 06:06:20;;;;;;;10.93;6.60;;;;;;;9.28;100.00;100429.13;5055351;28;20029;-83
2023/04/27 06:08:48;;;;;;;11.65;6.82;;;;;;;9.36;100.00;100426.41;5033731;28;20106;-78
2023/04/27 06:11:15;;;;;;;11.70;6.80;;;;;;;9.36;100.00;100421.03;5054510;28;20067;-82
2023/04/27 06:13:46;;;;;;;11.43;6.00;;;;;;;9.43;100.00;100432.75;5054508;28;20025;-79
2023/04/27 06:16:13;;;;;;;11.57;6.68;;;;;;;9.51;100.00;100419.28;5054526;28;20078;-78
2023/04/27 06:18:44;;;;;;;12.98;6.28;;;;;;;9.60;100.00;100420.06;5053861;28;20039;-80
2023/04/27 06:21:10;;;;;;;12.68;6.13;;;;;;;9.63;100.00;100409.81;5055134;28;20033;-80
2023/04/27 06:23:40;;;;;;;12.27;6.90;;;;;;;9.75;100.00;100412.06;5054165;28;20498;-81
2023/04/27 06:26:06;;;;;;;10.13;6.28;;;;;;;9.79;100.00;100405.31;5055472;28;20089;-78
2023/04/27 06:28:32;;;;;;;11.05;6.95;;;;;;;9.91;100.00;100410.09;5053887;28;20429;-77
2023/04/27 06:31:01;;;;;;;10.10;6.32;;;;;;;10.01;100.00;100404.47;5055330;28;20104;-80
2023/04/27 06:33:29;;;;;;;8.90;6.18;;;;;;;10.08;100.00;100388.47;5055140;28;20479;-84
2023/04/27 06:35:59;;;;;;;11.10;6.90;;;;;;;10.21;100.00;100398.59;5055035;28;20174;-83
2023/04/27 06:38:27;;;;;;;11.40;6.18;;;;;;;10.21;100.00;100396.72;5021323;28;20175;-81
2023/04/27 06:40:53;;;;;;;10.23;6.35;;;;;;;10.20;100.00;100388.88;5053379;28;20029;-82
2023/04/27 06:43:19;;;;;;;10.30;6.80;;;;;;;10.24;100.00;100387.47;5053677;28;20486;-86
2023/04/27 06:45:44;;;;;;;12.10;6.60;;;;;;;10.24;100.00;100392.84;5053951;28;20033;-81
2023/04/27 06:48:10;;;;;;;10.93;5.32;;;;;;;10.26;100.00;100396.19;5055041;28;20029;-86
2023/04/27 06:50:36;;;;;;;9.38;5.80;;;;;;;10.26;100.00;100401.56;5037099;28;20266;-82
2023/04/27 06:53:01;;;;;;;11.68;6.25;;;;;;;10.23;100.00;100393.88;5020461;28;20479;-81
2023/04/27 06:55:27;;;;;;;11.10;6.32;;;;;;;10.21;100.00;100377.09;5054796;28;20079;-77
2023/04/27 06:57:55;;;;;;;12.63;5.95;;;;;;;10.24;100.00;100376.72;5020510;28;20037;-81
2023/04/27 07:00:21;;;;;;;12.45;5.70;;;;;;;10.25;100.00;100379.25;5053374;28;20112;-80
2023/04/27 07:02:52;;;;;;;7.85;5.00;;;;;;;10.24;100.00;100374.03;5054482;28;20091;-85
2023/04/27 07:05:24;;;;;;;9.70;5.50;;;;;;;10.29;100.00;100383.28;5021393;28;20075;-80
2023/04/27 07:07:52;;;;;;;14.80;6.97;;;;;;;10.31;100.00;100385.75;5036608;28;20041;-82
2023/04/27 07:10:20;;;;;;;9.13;5.45;;;;;;;10.32;100.00;100382.09;5054345;28;20057;-79
2023/04/27 07:12:46;;;;;;;13.52;7.18;;;;;;;10.39;100.00;100369.56;5054444;28;20039;-87
2023/04/27 07:15:12;;;;;;;13.73;8.18;;;;;;;10.65;100.00;100384.41;5036667;28;20115;-84
2023/04/27 07:17:40;;;;;;;13.48;8.48;;;;;;;10.80;100.00;100355.66;5036726;28;20478;-78
2023/04/27 07:20:16;;;;;;;7.55;4.82;;;;;;;11.28;100.00;100361.41;5053093;28;20035;-78
2023/04/27 07:22:41;;;;;;;9.50;4.32;;;;;;;11.74;100.00;100379.88;5053858;28;20111;-78
2023/04/27 07:25:08;;;;;;;7.05;4.28;;;;;;;11.80;100.00;100378.28;5020065;28;20043;-84
2023/04/27 07:27:37;;;;;;;7.80;4.22;;;;;;;11.81;100.00;100375.41;5053051;28;20051;-86
2023/04/27 07:30:04;;;;;;;5.03;3.53;;;;;;;11.92;100.00;100370.56;5053335;28;20029;-83
2023/04/27 07:32:30;;;;;;;5.75;3.03;;;;;;;12.06;100.00;100367.75;5036391;28;20113;-84
2023/04/27 07:34:56;;;;;;;7.13;4.15;;;;;;;12.18;100.00;100364.56;5054240;28;20062;-79
2023/04/27 07:37:23;;;;;;;4.63;2.78;;;;;;;12.57;100.00;100364.00;5036103;28;20029;-84
2023/04/27 07:39:52;;;;;;;5.72;3.25;;;;;;;12.71;100.00;100349.53;5020436;28;20076;-81
2023/04/27 07:42:21;;;;;;;4.63;2.80;;;;;;;12.94;100.00;100354.63;5052412;28;20065;-84
2023/04/27 07:44:53;;;;;;;2.92;2.20;;;;;;;13.01;100.00;100353.81;5036496;28;20051;-80
2023/04/27 07:47:19;;;;;;;3.67;2.25;;;;;;;13.06;100.00;100354.03;5036359;28;20475;-87
2023/04/27 07:49:45;;;;;;;3.60;1.85;;;;;;;13.15;100.00;100350.97;5019841;28;20043;-84
2023/04/27 07:52:11;;;;;;;4.00;2.58;;;;;;;13.04;100.00;100338.03;5019561;28;20078;-84
2023/04/27 07:54:37;;;;;;;7.13;3.92;;;;;;;13.29;100.00;100340.25;5053787;28;20037;-83
2023/04/27 07:57:12;;;;;;;3.90;2.40;;;;;;;13.52;100.00;100335.31;5053856;28;20127;-80
2023/04/27 07:59:39;;;;;;;3.95;3.00;;;;;;;13.79;100.00;100333.47;5052610;28;20029;-84
2023/04/27 08:02:04;;;;;;;3.47;2.17;;;;;;;13.88;100.00;100312.44;5020052;28;20036;-89
2023/04/27 08:04:30;;;;;;;3.30;1.92;;;;;;;14.15;100.00;100332.19;5036716;28;20033;-86
2023/04/27 08:06:56;;;;;;;3.13;2.08;;;;;;;14.07;99.86;100317.00;5054957;28;20364;-86
2023/04/27 08:09:21;;;;;;;2.42;1.70;;;;;;;13.83;98.32;100287.94;5054157;28;20483;-82
2023/04/27 08:11:53;;;;;;;3.13;2.13;;;;;;;13.93;100.00;100315.38;5053615;28;20062;-82
2023/04/27 08:14:22;;;;;;;3.25;2.30;;;;;;;13.86;99.01;100317.22;5035870;28;20032;-82
2023/04/27 08:16:50;;;;;;;4.07;2.30;;;;;;;13.70;100.00;100315.78;5053545;28;20028;-88
2023/04/27 08:19:16;;;;;;;3.10;2.13;;;;;;;13.57;100.00;100316.59;5052319;28;20039;-84
2023/04/27 08:21:42;;;;;;;2.58;1.48;;;;;;;13.30;100.00;100321.13;5018892;28;20076;-86
2023/04/27 08:24:07;;;;;;;2.80;1.73;;;;;;;13.19;100.00;100310.88;5054033;28;20374;-83
2023/04/27 08:26:35;;;;;;;3.75;2.00;;;;;;;13.09;100.00;100292.38;5052448;28;20029;-81
2023/04/27 08:29:01;;;;;;;4.53;2.42;;;;;;;13.29;100.00;100310.53;5052307;28;20036;-83
2023/04/27 08:31:27;;;;;;;4.28;2.83;;;;;;;13.63;100.00;100307.69;5051388;28;20045;-81
2023/04/27 08:33:56;;;;;;;4.15;2.95;;;;;;;13.81;100.00;100309.75;5035797;28;20053;-82
2023/04/27 08:36:27;;;;;;;5.47;3.63;;;;;;;13.96;99.82;100306.84;5052151;28;20033;-85
2023/04/27 08:39:00;;;;;;;6.22;2.67;;;;;;;13.92;100.00;100300.19;5053338;28;20044;-83
2023/04/27 08:41:28;;;;;;;3.58;2.47;;;;;;;13.75;99.15;100302.47;5035446;28;20035;-83
2023/04/27 08:43:54;;;;;;;5.10;3.35;;;;;;;13.55;99.87;100294.38;5051776;28;20028;-86
2023/04/27 08:46:25;;;;;;;3.85;2.53;;;;;;;13.56;100.00;100296.03;5052687;28;20430;-84
2023/04/27 08:48:55;;;;;;;5.35;3.10;;;;;;;13.62;99.37;100268.19;5051908;28;20065;-84
2023/04/27 08:51:21;;;;;;;6.97;3.15;;;;;;;13.86;98.93;100268.59;5034373;28;20095;-85
2023/04/27 08:53:52;;;;;;;5.38;2.92;;;;;;;14.07;99.11;100279.16;5052020;28;20025;-83
2023/04/27 08:56:18;;;;;;;4.30;2.80;;;;;;;14.41;96.60;100277.22;5034988;28;20479;-88
2023/04/27 08:58:44;;;;;;;4.60;3.25;;;;;;;14.53;95.82;100272.03;5018572;28;20029;-86
2023/04/27 09:01:10;;;;;;;6.45;3.28;;;;;;;14.41;95.48;100257.47;5051931;28;20642;-80
2023/04/27 09:03:36;;;;;;;4.82;2.90;;;;;;;14.59;94.34;100275.75;5054009;28;20041;-83
2023/04/27 09:06:04;;;;;;;6.20;3.60;;;;;;;14.65;92.90;100278.41;5035116;28;20529;-84
2023/04/27 09:08:54;;;;;;;5.00;3.95;;;;;;;14.87;92.44;100270.84;5034841;28;20029;-83
2023/04/27 09:11:37;;;;;;;9.48;6.25;;;;;;;14.94;91.27;100276.19;5019543;28;20032;-84
2023/04/27 09:14:25;;;;;;;7.38;3.65;;;;;;;15.07;89.73;100267.19;5034694;28;20096;-85
2023/04/27 09:16:56;;;;;;;5.38;3.38;;;;;;;14.81;91.93;100241.91;5051789;28;20032;-87
2023/04/27 09:19:26;;;;;;;6.43;3.80;;;;;;;14.87;90.62;100268.13;5019262;28;20429;-80
2023/04/27 09:22:04;;;;;;;7.95;4.85;;;;;;;14.70;91.21;100272.38;5051686;28;20383;-85
2023/04/27 09:24:32;;;;;;;3.03;2.45;;;;;;;14.41;90.37;100266.41;5035236;28;20029;-81
2023/04/27 09:26:58;;;;;;;4.20;2.65;;;;;;;14.15;92.57;100269.16;5051384;28;20119;-86
2023/04/27 09:29:34;;;;;;;5.80;3.30;;;;;;;14.21;94.39;100262.91;5035282;28;20083;-84
2023/04/27 09:32:00;;;;;;;8.32;3.90;;;;;;;14.29;92.87;100254.59;5035155;28;20025;-86
2023/04/27 09:34:45;;;;;;;6.30;4.28;;;;;;;14.43;91.82;100267.03;5051497;28;20083;-79
2023/04/27 09:37:13;;;;;;;2.80;2.53;;;;;;;14.51;90.61;100258.66;5034325;28;20099;-82
2023/04/27 09:39:38;;;;;;;3.00;2.13;;;;;;;14.52;92.15;100248.66;5054928;28;20025;-86
2023/04/27 09:42:08;;;;;;;3.40;2.25;;;;;;;14.46;92.40;100249.53;5054996;28;20451;-81
2023/04/27 09:44:49;;;;;;;5.20;2.40;;;;;;;14.39;92.59;100248.72;5038357;28;20067;-81
2023/04/27 09:47:24;;;;;;;3.45;2.45;;;;;;;14.08;92.56;100228.66;5022376;28;20035;-79
2023/04/27 09:50:13;;;;;;;5.70;2.20;;;;;;;14.08;94.83;100245.69;5026314;28;20919;-89
2023/04/27 09:52:42;;;;;;;7.82;4.25;;;;;;;13.97;94.65;100208.50;5006385;28;20086;-86
2023/04/27 09:55:27;;;;;;;4.13;2.40;;;;;;;14.46;94.19;100242.25;5038302;28;20041;-82
2023/04/27 09:58:14;;;;;;;3.60;2.70;;;;;;;14.63;92.45;100247.19;5054916;28;20523;-82
2023/04/27 10:00:56;;;;;;;3.85;2.22;;;;;;;14.67;92.49;100245.72;5054639;28;20426;-83
2023/04/27 10:04:01;;;;;;;6.85;4.13;;;;;;;14.50;92.14;100245.34;5054694;28;20049;-85
2023/04/27 10:06:38;;;;;;;7.32;4.13;;;;;;;14.64;90.65;100238.88;5038117;28;20171;-82
2023/04/27 10:09:05;;;;;;;3.88;2.58;;;;;;;15.00;90.35;100215.75;5054779;28;20036;-83
2023/04/27 10:11:39;;;;;;;9.35;5.40;;;;;;;15.62;88.31;100243.03;5038452;28;20087;-84
2023/04/27 10:14:10;;;;;;;2.75;1.80;;;;;;;15.93;83.56;100201.50;5038361;28;20468;-88
2023/04/27 10:16:47;;;;;;;4.78;2.05;;;;;;;16.26;82.07;100238.25;5054343;28;20037;-87
2023/04/27 10:19:15;;;;;;;3.22;2.10;;;;;;;16.34;80.82;100239.84;5054576;28;20143;-82
2023/04/27 10:22:01;;;;;;;2.20;1.38;;;;;;;16.56;77.56;100229.34;5054355;28;20109;-80
2023/04/27 10:24:40;;;;;;;1.15;0.95;;;;;;;16.67;76.42;100226.72;5021299;28;20028;-79
2023/04/27 10:27:08;;;;;;;1.75;1.23;;;;;;;16.30;76.75;100216.91;5021689;28;20451;-80
2023/04/27 10:29:38;;;;;;;2.97;1.83;;;;;;;15.97;79.49;100223.56;5038120;28;20036;-84
2023/04/27 10:32:11;;;;;;;2.67;1.33;;;;;;;15.70;80.36;100217.56;5021428;28;20094;-82
2023/04/27 10:34:40;;;;;;;3.33;1.40;;;;;;;15.43;82.09;100223.19;5021429;28;20033;-81
2023/04/27 10:37:10;;;;;;;4.10;2.20;;;;;;;15.36;84.91;100215.09;5037484;28;20040;-81
2023/04/27 10:39:43;;;;;;;2.13;1.42;;;;;;;15.48;83.51;100217.09;5037585;28;20029;-81
2023/04/27 10:42:09;;;;;;;3.80;2.00;;;;;;;15.88;83.38;100217.59;5020937;28;20181;-83
2023/04/27 10:44:36;;;;;;;2.35;1.38;;;;;;;16.10;80.44;100201.72;5037271;28;20033;-83
2023/04/27 10:47:18;;;;;;;2.53;1.60;;;;;;;16.42;79.20;100202.38;5053662;28;20029;-82
2023/04/27 10:49:44;;;;;;;3.88;2.20;;;;;;;16.83;78.28;100211.69;5036648;28;20033;-83
2023/04/27 10:52:10;;;;;;;4.53;2.45;;;;;;;16.83;76.36;100208.13;5054877;28;20036;-87
2023/04/27 10:54:38;;;;;;;4.50;2.92;;;;;;;16.70;75.90;100206.41;5055001;28;20033;-82
2023/04/27 10:57:12;;;;;;;2.55;1.30;;;;;;;16.75;74.52;100208.41;5037547;28;20048;-86
2023/04/27 10:59:52;;;;;;;3.17;2.30;;;;;;;17.26;73.84;100209.81;5053749;28;20459;-83
2023/04/27 11:02:27;;;;;;;3.70;2.65;;;;;;;17.61;70.82;100192.72;5036999;28;20497;-81
2023/04/27 11:04:55;;;;;;;2.95;2.17;;;;;;;18.00;69.72;100202.88;5053187;28;20055;-81
2023/04/27 11:07:26;;;;;;;2.13;1.55;;;;;;;18.29;68.68;100188.53;5054721;28;20078;-83
2023/04/27 11:09:52;;;;;;;2.28;1.60;;;;;;;18.42;65.63;100189.09;5053824;28;20078;-80
2023/04/27 11:12:23;;;;;;;3.58;2.22;;;;;;;18.33;66.46;100167.91;5004233;28;20430;-88
2023/04/27 11:14:49;;;;;;;3.08;2.55;;;;;;;17.83;65.57;100152.19;5053504;28;20082;-83
2023/04/27 11:17:26;;;;;;;1.55;1.35;;;;;;;17.31;66.99;100185.47;5054535;28;20033;-81
2023/04/27 11:19:55;;;;;;;1.50;1.10;;;;;;;16.34;70.91;100175.56;5020481;28;20079;-84
2023/04/27 11:22:28;;;;;;;5.15;3.00;;;;;;;15.76;75.62;100182.25;5020622;28;20036;-80
2023/04/27 11:24:58;;;;;;;3.35;1.85;;;;;;;15.33;77.66;100174.91;5037119;28;20467;-83
2023/04/27 11:27:35;;;;;;;4.53;2.95;;;;;;;15.23;80.49;100174.56;5053014;28;20029;-84
2023/04/27 11:30:06;;;;;;;4.13;2.95;;;;;;;15.17;81.94;100181.72;5037058;28;20079;-86
2023/04/27 11:32:36;;;;;;;5.45;4.55;;;;;;;15.22;83.19;100177.53;5054539;28;20107;-85
2023/04/27 11:35:05;;;;;;;14.15;8.27;;;;;;;15.69;83.00;100170.66;5055489;28;20115;-87